Southwestern Research Station, Arizona Weather observations

Data are for 10 minute period ending at time listed.
 Day   Time   Solar   Ave.   Ave.  Ave.  Vector  Max.   Baro.   Total    
  of    of     Rad.   Air    Rel.  Wind   Wind   Wind  Press.  Precip.   
Year   Day            Temp.  Hum.  Speed  Dir.   Gust                    
2026   (PST)  Kw/m2    F      %     mph   deg.    mph    mb.     in.     
-------------------------------------------------------------------------
 123   15:00   0.42   74.5    29    3.3   151    10.6   833.1    0.00 
 123   15:10   0.53   74.3    29    3.4   144    12.6   832.9    0.00 
 123   15:20   0.50   75.2    28    2.4   190     9.8   832.9    0.00 
 123   15:30   0.45   75.0    28    1.8   175     6.4   832.9    0.00 
 123   15:40   0.39   75.3    27    2.1   247     6.6   832.7    0.00 
 123   15:50   0.28   74.6    28    2.2   185     8.0   832.6    0.00 
 123   16:00   0.31   74.4    30    1.3   154     4.9   832.6    0.00 
 123   16:10   0.29   74.3    28    3.4   268    10.7   832.7    0.00 
 123   16:20   0.23   73.5    28    2.9   224     8.6   832.7    0.00 
 123   16:30   0.17   72.7    28    3.6   196    10.7   832.8    0.00 
 123   16:40   0.11   72.2    30    3.2   181     9.7   832.9    0.00 
 123   16:50   0.12   71.8    31    1.8   239     6.9   832.8    0.00 
 123   17:00   0.13   71.9    31    1.2   133     3.9   832.6    0.00 
 123   17:10   0.10   71.9    32    0.8    78     3.4   832.5    0.00 
 123   17:20   0.09   71.7    33    1.7    94     5.0   832.5    0.00 
 123   17:30   0.08   71.4    34    1.9   142     5.5   832.4    0.00 
 123   17:40   0.08   71.1    35    1.1   148     5.4   832.5    0.00 
 123   17:50   0.09   70.6    36    1.2   234     6.2   832.5    0.00 
 123   18:00   0.08   71.1    33    1.3   196     7.2   832.4    0.00 
 123   18:10   0.06   70.7    34    0.9   193     9.6   832.5    0.00 
 123   18:20   0.04   70.2    30    1.6   222     4.9   832.5    0.00 
 123   18:30   0.04   69.9    31    1.3   248     5.6   832.5    0.00 
 123   18:40   0.04   68.5    34    0.1    60     1.3   832.4    0.00 
 123   18:50   0.02   67.0    38    0.3   238     2.9   832.5    0.00 
 123   19:00   0.01   65.2    43    0.8   312     4.1   832.4    0.00 
 123   19:10   0.00   63.6    44    0.1   130     2.0   832.4    0.00 
 123   19:20   0.00   62.3    47    0.5   243     2.3   832.5    0.00 
 123   19:30   0.00   60.7    50    0.3   247     2.1   832.6    0.00 
 123   19:40   0.00   59.7    53    0.2   251     1.8   832.5    0.00 
 123   19:50   0.00   58.8    55    1.1   287     3.1   832.7    0.00 
 123   20:00   0.00   58.6    56    0.1   263     1.2   832.7    0.00 
 123   20:10   0.00   57.6    58    0.5   282     2.4   832.7    0.00 
 123   20:20   0.00   57.0    58    0.5   292     3.1   832.7    0.00 
 123   20:30   0.00   56.3    61    0.7   263     2.6   832.9    0.00 
 123   20:40   0.00   55.7    62    1.2   312     3.0   832.9    0.00 
 123   20:50   0.00   55.5    62    1.3   245     4.8   832.8    0.00 
 123   21:00   0.00   55.8    61    0.9   330     3.9   833.1    0.00 
 123   21:10   0.00   55.7    62    0.4   295     1.8   833.2    0.00 
 123   21:20   0.00   55.4    62    0.5   304     2.3   833.2    0.00 
 123   21:30   0.00   54.9    62    0.7   353     2.8   833.0    0.00 
 123   21:40   0.00   54.8    61    0.5   268     2.3   833.0    0.00 
 123   21:50   0.00   54.5    62    0.8   273     2.8   833.1    0.00 
 123   22:00   0.00   54.0    63    0.9   262     4.5   833.2    0.00 
 123   22:10   0.00   54.5    59    1.0   317     2.7   833.0    0.00 
 123   22:20   0.00   55.7    54    1.1   230     8.8   833.0    0.00 
 123   22:30   0.00   55.9    54    0.6    96     5.6   833.1    0.00 
 123   22:40   0.00   55.0    56    1.3   267     4.5   833.0    0.00 
 123   22:50   0.00   55.4    52    1.3   312     4.2   833.1    0.00 
 123   23:00   0.00   58.6    45    1.6   233     9.3   833.0    0.00 
 123   23:10   0.00   56.6    51    1.7   196     6.8   833.2    0.00 
 123   23:20   0.00   56.6    50    0.9   136     3.1   833.2    0.00 
 123   23:30   0.00   56.4    50    1.3   280     5.3   833.2    0.00 
 123   23:40   0.00   56.5    48    0.7   146     3.3   833.1    0.00 
 123   23:50   0.00   55.8    49    1.0     8     3.7   833.1    0.00 
 124    0:00   0.00   54.8    50    0.6   314     2.6   833.1    0.00 
 124    0:10   0.00   54.0    54    0.3   313     1.8   833.1    0.00 
 124    0:20   0.00   52.8    56    1.3   319     4.0   832.9    0.00 
 124    0:30   0.00   51.8    59    0.8    14     2.7   832.8    0.00 
 124    0:40   0.00   51.3    61    0.2    25     1.7   832.7    0.00 
 124    0:50   0.00   50.7    62    1.4   264     4.7   832.6    0.00 
 124    1:00   0.00   51.5    58    1.1    20     3.1   832.5    0.00 
 124    1:10   0.00   53.1    53    1.9    73     5.1   832.3    0.00 
 124    1:20   0.00   55.3    47    3.0   208     8.6   832.3    0.00 
 124    1:30   0.00   58.7    39    3.2    71     9.2   832.3    0.00 
 124    1:40   0.00   60.2    38    2.7   105     8.8   832.3    0.00 
 124    1:50   0.00   61.2    37    2.1   203     7.2   832.3    0.00 
 124    2:00   0.00   62.8    35    3.7   205    14.0   832.1    0.00 
 124    2:10   0.00   62.8    34    4.3   205    20.9   832.1    0.00 
 124    2:20   0.00   63.2    33    3.0   205    14.2   832.0    0.00 
 124    2:30   0.00   63.2    32    3.8   203    15.0   831.9    0.00 
 124    2:40   0.00   63.2    31    3.0   247    10.5   831.7    0.00 
 124    2:50   0.00   62.9    32    2.8   246    10.6   831.7    0.00 
 124    3:00   0.00   62.6    33    3.2   238    12.7   831.8    0.00 
 124    3:10   0.00   61.9    34    2.6   186     8.8   831.9    0.00 
 124    3:20   0.00   61.7    35    2.9   214    11.3   832.0    0.00 
 124    3:30   0.00   61.9    33    3.3   178    12.1   832.0    0.00 
 124    3:40   0.00   62.3    32    3.0    82     9.8   832.1    0.00 
 124    3:50   0.00   61.7    33    2.5   183    10.4   832.2    0.00 
 124    4:00   0.00   61.4    34    2.3   148     9.3   832.2    0.00 
 124    4:10   0.00   61.4    31    3.6   195     9.8   832.3    0.00 
 124    4:20   0.00   61.4    32    1.8    69     4.7   832.2    0.00 
 124    4:30   0.00   59.7    36    2.2    74     7.9   832.3    0.00 
 124    4:40   0.00   59.3    38    2.7   100    11.8   832.1    0.00 
 124    4:50   0.00   59.6    38    1.9   140     5.8   832.1    0.00 
 124    5:00   0.00   58.5    40    1.7    47     6.8   832.2    0.00 
 124    5:10   0.00   58.4    39    3.0    59    11.4   832.2    0.00 
 124    5:20   0.00   58.7    38    1.7    59     6.9   832.2    0.00 
 124    5:30   0.01   57.0    42    2.1    70     7.6   832.4    0.00 
 124    5:40   0.02   55.9    44    1.2   181     4.8   832.5    0.00 
 124    5:50   0.03   55.3    44    1.6    40     9.7   832.4    0.00 
 124    6:00   0.04   56.2    45    0.2    54     1.4   832.4    0.00 
 124    6:10   0.05   54.0    52    0.6   334     3.8   832.5    0.00 
 124    6:20   0.06   53.8    50    0.9     9     4.0   832.6    0.00 
 124    6:30   0.06   54.2    48    0.7    36     2.9   832.8    0.00 
 124    6:40   0.12   55.6    39    1.2    50     4.1   833.0    0.00 
 124    6:50   0.19   56.9    41    1.7    70     5.6   833.0    0.00 
 124    7:00   0.13   58.6    41    0.6   180     4.0   833.1    0.00 
 124    7:10   0.17   58.6    35    1.4    96     3.2   833.2    0.00 
 124    7:20   0.20   60.8    33    1.5    96     5.7   833.3    0.00 
 124    7:30   0.29   62.5    27    1.4   103     5.0   833.6    0.00 
 124    7:40   0.37   64.8    24    2.3    95     5.5   833.8    0.00 
 124    7:50   0.40   65.7    23    2.6    88     8.0   833.8    0.00 
 124    8:00   0.41   65.8    23    2.4    90     6.1   833.8    0.00 
 124    8:10   0.39   66.0    23    3.0   100     8.8   833.8    0.00 
 124    8:20   0.46   66.4    23    3.0    98     6.9   833.8    0.00 
 124    8:30   0.49   67.0    23    2.3   105     7.3   833.8    0.00 
 124    8:40   0.60   68.0    23    2.3   112     7.2   833.9    0.00 
 124    8:50   0.61   68.6    23    2.6   103     6.6   834.0    0.00 
 124    9:00   0.65   68.3    22    2.5   110     6.1   833.9    0.00 
 124    9:10   0.55   68.7    22    3.2   112     9.2   833.7    0.00 
 124    9:20   0.65   69.0    22    2.8   119     8.3   833.8    0.00 
 124    9:30   0.65   70.1    20    4.3   101     8.2   833.7    0.00 
 124    9:40   0.74   70.4    20    3.7   110     9.2   833.7    0.00 
 124    9:50   0.61   70.9    19    4.2    96    10.2   833.7    0.00 
 124   10:00   0.80   71.6    19    3.4   108     9.3   833.8    0.00 
 124   10:10   0.82   72.6    18    2.9    89     9.0   833.7    0.00 
 124   10:20   0.84   73.1    17    4.2    97     9.1   833.6    0.00 
 124   10:30   0.77   72.5    15    3.2   150     9.1   833.6    0.00 
 124   10:40   0.81   74.0    15    3.9   343    14.2   833.4    0.00 
 124   10:50   0.86   75.0    14    3.6   301    10.7   833.4    0.00 
 124   11:00   0.92   76.4    14    2.8     2     9.9   833.4    0.00 
 124   11:10   0.84   75.1    14    3.4   208     9.5   833.5    0.00 
 124   11:20   0.97   74.0    14    5.7   201    16.7   833.5    0.00 
 124   11:30   0.73   73.7    15    3.8   203    12.4   833.4    0.00 
 124   11:40   0.95   73.8    16    3.1   202     7.4   833.2    0.00 
 124   11:50   0.91   74.2    15    5.5   219    13.7   833.3    0.00 
 124   12:00   0.91   73.7    16    4.6   217    14.0   833.2    0.00 
 124   12:10   0.87   74.8    16    2.9   230     8.9   833.2    0.00 
 124   12:20   0.86   75.0    17    2.6   232     9.2   833.1    0.00 
 124   12:30   0.86   75.3    17    3.1   246    11.2   833.0    0.00 
 124   12:40   0.84   75.0    18    3.1   221    10.1   832.9    0.00 
 124   12:50   0.86   75.2    17    2.3   270     7.5   832.9    0.00 
 124   13:00   0.80   75.5    17    2.8   203    10.4   832.8    0.00 
 124   13:10   0.76   76.4    18    2.8   270    11.5   832.7    0.00 
 124   13:20   0.82   76.7    17    3.9   296    10.5   832.7    0.00 
 124   13:30   0.88   77.5    18    3.7   292    10.5   832.8    0.00 
 124   13:40   0.82   76.2    19    3.3   207     9.3   832.7    0.00 
 124   13:50   0.77   75.3    20    3.5   244    11.0   832.7    0.00 
 124   14:00   0.53   75.2    20    4.2   192    11.8   832.5    0.00 
 124   14:10   0.52   74.3    20    1.7   219     6.1   832.3    0.00 
 124   14:20   0.49   75.3    20    3.1   316     9.8   832.4    0.00 
 124   14:30   0.49   74.5    20    4.5   195    12.9   832.3    0.00 
 124   14:40   0.44   74.1    20    3.7   208    13.2   832.3    0.00 
 124   14:50   0.44   75.1    19    3.1   304    13.4   832.3    0.00 

Return to Southwestern Research Station graphs page.


Western Regional Climate Center,wrcc@dri.edu